Time;durP1;ratioP1;P1;durP2;ratioP2;P2;SDS_P1;SDS_P2;PMS_P1;PMS_P2;Temp;Humidity;BMP_temperature;BMP_pressure;BME280_temperature;BME280_humidity;BME280_pressure;Samples;Min_cycle;Max_cycle;Signal;HPM_P1;HPM_P2
2022/08/15 00:01:17;;;;;;;;;;;;;;;24.88;45.83;98672.19;4345312;32;34330;-74
2022/08/15 00:03:53;;;;;;;;;;;;;;;24.89;45.74;98665.91;4331877;33;34045;-75
2022/08/15 00:06:30;;;;;;;;;;;;;;;24.87;46.09;98672.34;4325569;33;34101;-76
2022/08/15 00:09:12;;;;;;;;;;;;;;;24.89;45.91;98676.53;4325201;33;35054;-74
2022/08/15 00:11:44;;;;;;;;;;;;;;;24.91;45.76;98671.06;4332220;32;33299;-75
2022/08/15 00:14:16;;;;;;;;;;;;;;;24.89;45.81;98673.03;4335336;33;34022;-75
2022/08/15 00:16:47;;;;;;;;;;;;;;;24.76;46.27;98680.38;4338004;32;33963;-75
2022/08/15 00:19:16;;;;;;;;;;;;;;;24.57;46.98;98682.00;4338044;32;33691;-76
2022/08/15 00:21:46;;;;;;;;;;;;;;;24.69;46.95;98688.91;4337945;32;34921;-75
2022/08/15 00:24:19;;;;;;;;;;;;;;;24.69;47.05;98688.91;4343453;32;33210;-75
2022/08/15 00:26:57;;;;;;;;;;;;;;;24.64;47.44;98685.78;4337445;32;33163;-75
2022/08/15 00:29:27;;;;;;;;;;;;;;;24.50;48.04;98678.22;4336991;32;34824;-75
2022/08/15 00:32:06;;;;;;;;;;;;;;;24.55;48.05;98669.84;4335924;32;34080;-75
2022/08/15 00:34:55;;;;;;;;;;;;;;;24.53;48.16;98667.34;4338917;32;34528;-75
2022/08/15 00:37:24;;;;;;;;;;;;;;;24.53;48.22;98670.00;4336880;32;32920;-76
2022/08/15 00:39:53;;;;;;;;;;;;;;;24.54;48.13;98669.00;4341682;32;34976;-74
2022/08/15 00:42:24;;;;;;;;;;;;;;;24.51;48.10;98669.28;4337717;32;34693;-75
2022/08/15 00:44:58;;;;;;;;;;;;;;;24.57;48.03;98665.25;4339283;32;33535;-75
2022/08/15 00:47:41;;;;;;;;;;;;;;;24.60;47.90;98673.78;4333906;32;33776;-74
2022/08/15 00:50:12;;;;;;;;;;;;;;;24.35;48.40;98679.50;4338504;32;33510;-75
2022/08/15 00:53:04;;;;;;;;;;;;;;;24.57;47.89;98674.03;4341946;32;34061;-76
2022/08/15 00:55:34;;;;;;;;;;;;;;;24.63;47.96;98680.63;4342880;32;34062;-74
2022/08/15 00:58:02;;;;;;;;;;;;;;;24.50;47.93;98680.88;4344201;32;35827;-76
2022/08/15 01:00:33;;;;;;;;;;;;;;;24.54;47.51;98684.91;4352792;32;34790;-76
2022/08/15 01:03:15;;;;;;;;;;;;;;;24.64;47.24;98674.34;4333286;32;35212;-74
2022/08/15 01:05:46;;;;;;;;;;;;;;;24.48;47.66;98669.56;4345127;32;34830;-74
2022/08/15 01:08:19;;;;;;;;;;;;;;;24.42;47.85;98681.47;4340094;32;33348;-75
2022/08/15 01:11:06;;;;;;;;;;;;;;;24.44;47.85;98671.59;4341458;32;34056;-75
2022/08/15 01:13:36;;;;;;;;;;;;;;;24.60;47.29;98671.12;4343717;32;33712;-75
2022/08/15 01:16:24;;;;;;;;;;;;;;;24.53;47.44;98683.25;4343835;32;34727;-74
2022/08/15 01:19:04;;;;;;;;;;;;;;;24.47;47.85;98683.78;4342932;32;33173;-76
2022/08/15 01:21:42;;;;;;;;;;;;;;;24.53;47.70;98677.13;4338885;32;33982;-75
2022/08/15 01:24:13;;;;;;;;;;;;;;;24.55;47.41;98681.31;4342529;32;34135;-75
2022/08/15 01:26:44;;;;;;;;;;;;;;;24.39;47.83;98680.94;4344653;32;34787;-75
2022/08/15 01:29:15;;;;;;;;;;;;;;;24.35;48.07;98682.97;4343169;32;33914;-75
2022/08/15 01:31:45;;;;;;;;;;;;;;;24.33;48.14;98692.03;4346270;32;34255;-74
2022/08/15 01:34:17;;;;;;;;;;;;;;;24.31;48.14;98689.53;4344337;32;33289;-75
2022/08/15 01:36:47;;;;;;;;;;;;;;;24.46;47.96;98698.00;4343317;32;34117;-75
2022/08/15 01:39:20;;;;;;;;;;;;;;;24.33;48.36;98697.34;4341680;32;33126;-75
2022/08/15 01:41:52;;;;;;;;;;;;;;;24.29;48.70;98696.78;4343246;32;34157;-75
2022/08/15 01:44:26;;;;;;;;;;;;;;;24.23;48.48;98692.81;4344729;32;34223;-74
2022/08/15 01:47:08;;;;;;;;;;;;;;;24.09;48.89;98692.34;4343278;32;34754;-75
2022/08/15 01:49:55;;;;;;;;;;;;;;;24.06;49.03;98696.91;4342967;32;33395;-75
2022/08/15 01:52:29;;;;;;;;;;;;;;;23.83;49.50;98690.91;4344516;32;34687;-75
2022/08/15 01:55:18;;;;;;;;;;;;;;;24.01;49.08;98690.34;4337965;32;34403;-74
2022/08/15 01:57:49;;;;;;;;;;;;;;;23.90;49.37;98687.78;4339913;32;33541;-75
2022/08/15 02:00:18;;;;;;;;;;;;;;;23.89;49.30;98684.25;4354037;32;33182;-74
2022/08/15 02:02:47;;;;;;;;;;;;;;;24.00;48.88;98699.25;4340047;32;34037;-74
2022/08/15 02:05:16;;;;;;;;;;;;;;;23.78;49.40;98697.59;4338649;32;35571;-75
2022/08/15 02:07:44;;;;;;;;;;;;;;;23.14;52.15;98698.37;4338995;32;33971;-75
2022/08/15 02:10:33;;;;;;;;;;;;;;;23.33;51.31;98701.22;4330158;32;33196;-76
2022/08/15 02:13:05;;;;;;;;;;;;;;;23.62;49.88;98697.97;4346280;33;34034;-74
2022/08/15 02:15:43;;;;;;;;;;;;;;;23.49;50.07;98694.69;4333232;32;34946;-74
2022/08/15 02:18:13;;;;;;;;;;;;;;;23.70;49.61;98689.37;4338732;32;33532;-74
2022/08/15 02:20:49;;;;;;;;;;;;;;;23.64;49.79;98696.03;4337468;32;33326;-75
2022/08/15 02:23:19;;;;;;;;;;;;;;;23.54;49.96;98695.13;4344379;32;33949;-74
2022/08/15 02:25:54;;;;;;;;;;;;;;;23.65;49.74;98692.41;4344383;32;33915;-74
2022/08/15 02:28:24;;;;;;;;;;;;;;;23.66;49.89;98690.63;4338850;32;34406;-76
2022/08/15 02:31:10;;;;;;;;;;;;;;;23.58;50.19;98694.75;4336372;32;33450;-75
2022/08/15 02:33:41;;;;;;;;;;;;;;;23.62;50.22;98687.38;4339820;32;34199;-75
2022/08/15 02:36:16;;;;;;;;;;;;;;;23.70;50.07;98686.75;4339287;32;34096;-76
2022/08/15 02:38:59;;;;;;;;;;;;;;;23.55;50.61;98686.22;4344051;32;32211;-76
2022/08/15 02:41:29;;;;;;;;;;;;;;;23.57;50.61;98694.88;4339942;32;33266;-76
2022/08/15 02:44:12;;;;;;;;;;;;;;;23.52;50.81;98689.13;4338061;32;34876;-74
2022/08/15 02:46:52;;;;;;;;;;;;;;;23.58;50.90;98683.31;4338078;32;33995;-74
2022/08/15 02:49:36;;;;;;;;;;;;;;;23.61;51.11;98683.91;4339098;32;34948;-75
2022/08/15 02:52:18;;;;;;;;;;;;;;;23.52;51.43;98687.31;4338497;32;33181;-75
2022/08/15 02:54:49;;;;;;;;;;;;;;;23.47;51.75;98680.72;4343275;32;33696;-75
2022/08/15 02:57:28;;;;;;;;;;;;;;;23.49;51.53;98682.28;4337984;32;33720;-75
2022/08/15 02:59:58;;;;;;;;;;;;;;;23.45;51.80;98675.53;4340217;33;34209;-75
2022/08/15 03:02:27;;;;;;;;;;;;;;;23.42;51.71;98675.81;4339507;32;32192;-75
2022/08/15 03:04:59;;;;;;;;;;;;;;;23.30;51.85;98680.31;4346077;33;33203;-75
2022/08/15 03:07:28;;;;;;;;;;;;;;;23.29;51.66;98683.06;4339520;32;34756;-76
2022/08/15 03:09:58;;;;;;;;;;;;;;;23.21;51.85;98675.75;4339652;32;34173;-75
2022/08/15 03:12:28;;;;;;;;;;;;;;;23.20;51.69;98669.63;4338889;32;33115;-76
2022/08/15 03:15:02;;;;;;;;;;;;;;;23.23;51.67;98679.12;4338383;32;33232;-75
2022/08/15 03:17:30;;;;;;;;;;;;;;;23.16;51.75;98675.28;4344287;32;34149;-74
2022/08/15 03:20:05;;;;;;;;;;;;;;;23.04;52.28;98666.53;4339756;32;34170;-75
2022/08/15 03:22:42;;;;;;;;;;;;;;;22.94;52.42;98679.62;4327966;32;33183;-75
2022/08/15 03:25:14;;;;;;;;;;;;;;;23.05;52.26;98675.31;4336869;32;33875;-75
2022/08/15 03:27:43;;;;;;;;;;;;;;;23.08;52.21;98685.66;4337186;32;32994;-75
2022/08/15 03:30:15;;;;;;;;;;;;;;;22.84;53.07;98691.09;4342631;32;33802;-74
2022/08/15 03:32:49;;;;;;;;;;;;;;;22.85;53.39;98688.31;4339912;32;33828;-75
2022/08/15 03:35:22;;;;;;;;;;;;;;;23.00;52.44;98684.47;4336903;32;34181;-75
2022/08/15 03:37:58;;;;;;;;;;;;;;;23.00;52.58;98692.41;4336068;32;34360;-75
2022/08/15 03:40:34;;;;;;;;;;;;;;;22.85;53.07;98692.75;4334551;32;33620;-75
2022/08/15 03:43:05;;;;;;;;;;;;;;;22.92;52.87;98689.50;4342926;32;34011;-76
2022/08/15 03:45:43;;;;;;;;;;;;;;;22.91;52.96;98690.47;4339283;32;33681;-75
2022/08/15 03:48:13;;;;;;;;;;;;;;;22.90;52.89;98696.69;4337593;32;35353;-76
2022/08/15 03:50:50;;;;;;;;;;;;;;;22.71;53.35;98699.13;4339487;32;33587;-74
2022/08/15 03:53:26;;;;;;;;;;;;;;;22.74;53.23;98698.91;4340150;32;34065;-75
2022/08/15 03:55:56;;;;;;;;;;;;;;;22.79;53.19;98694.94;4343757;32;33011;-75
2022/08/15 03:58:28;;;;;;;;;;;;;;;22.70;53.53;98700.09;4337591;32;33776;-76
2022/08/15 04:01:05;;;;;;;;;;;;;;;22.71;53.45;98707.06;4339621;32;35091;-75
2022/08/15 04:03:35;;;;;;;;;;;;;;;22.80;53.25;98703.69;4337994;32;33930;-74
2022/08/15 04:06:07;;;;;;;;;;;;;;;22.96;52.76;98708.62;4340783;32;35016;-75
2022/08/15 04:08:43;;;;;;;;;;;;;;;22.78;52.78;98703.84;4317227;32;785866;-77
2022/08/15 04:11:31;;;;;;;;;;;;;;;22.68;53.22;98704.66;4339094;32;33959;-78
2022/08/15 04:14:08;;;;;;;;;;;;;;;22.69;53.13;98704.56;4336470;32;33885;-78
2022/08/15 04:16:59;;;;;;;;;;;;;;;22.77;52.77;98706.59;4329087;32;34744;-77
2022/08/15 04:19:39;;;;;;;;;;;;;;;22.73;52.95;98707.78;4337407;32;34017;-78
2022/08/15 04:22:18;;;;;;;;;;;;;;;22.85;52.93;98713.91;4344514;32;33733;-78
2022/08/15 04:25:08;;;;;;;;;;;;;;;23.02;52.47;98713.44;4342205;32;33847;-77
2022/08/15 04:27:46;;;;;;;;;;;;;;;23.04;52.50;98714.16;4337953;32;34817;-77
2022/08/15 04:30:21;;;;;;;;;;;;;;;23.07;52.26;98713.06;4334991;32;33913;-77
2022/08/15 04:32:51;;;;;;;;;;;;;;;23.04;52.61;98713.31;4337514;32;33868;-77
2022/08/15 04:35:36;;;;;;;;;;;;;;;23.21;52.86;98710.16;4328711;32;32999;-77
2022/08/15 04:38:04;;;;;;;;;;;;;;;23.31;53.03;98715.53;4342574;32;33408;-77
2022/08/15 04:40:33;;;;;;;;;;;;;;;23.38;52.34;98720.19;4338064;32;34779;-77
2022/08/15 04:43:22;;;;;;;;;;;;;;;23.22;52.97;98717.12;4337580;32;34160;-77
2022/08/15 04:45:52;;;;;;;;;;;;;;;23.49;50.79;98715.84;4332563;32;33040;-75
2022/08/15 04:48:25;;;;;;;;;;;;;;;23.66;50.80;98725.06;4336806;32;34137;-75
2022/08/15 04:50:56;;;;;;;;;;;;;;;23.63;50.35;98720.81;4341901;32;34946;-75
2022/08/15 04:53:29;;;;;;;;;;;;;;;23.67;51.09;98722.25;4337043;32;34292;-75
2022/08/15 04:56:00;;;;;;;;;;;;;;;23.71;50.38;98721.06;4337197;32;34335;-76
2022/08/15 04:58:31;;;;;;;;;;;;;;;23.86;50.57;98711.00;4337256;32;33687;-75
2022/08/15 05:01:19;;;;;;;;;;;;;;;23.82;51.43;98713.09;4333368;32;34633;-75
2022/08/15 05:03:52;;;;;;;;;;;;;;;23.90;50.68;98711.63;4338385;32;34405;-75
2022/08/15 05:06:23;;;;;;;;;;;;;;;23.89;50.63;98716.03;4337806;32;33878;-75
2022/08/15 05:09:00;;;;;;;;;;;;;;;23.96;50.82;98711.91;4336167;32;34685;-75
2022/08/15 05:11:30;;;;;;;;;;;;;;;23.88;51.11;98706.44;4335305;32;34156;-78
2022/08/15 05:14:19;;;;;;;;;;;;;;;24.09;51.57;98711.75;4334926;32;33898;-77
2022/08/15 05:17:04;;;;;;;;;;;;;;;24.19;51.59;98709.16;4335716;32;32645;-77
2022/08/15 05:19:39;;;;;;;;;;;;;;;24.53;50.34;98701.81;4342693;32;34869;-78
2022/08/15 05:22:08;;;;;;;;;;;;;;;24.77;49.05;98703.31;4338281;32;34096;-78
2022/08/15 05:24:37;;;;;;;;;;;;;;;25.08;47.89;98699.63;4337440;32;33498;-78
2022/08/15 05:27:08;;;;;;;;;;;;;;;25.47;47.16;98698.88;4337851;32;32679;-78
2022/08/15 05:29:38;;;;;;;;;;;;;;;25.71;46.63;98698.44;4340256;32;33953;-75
2022/08/15 05:32:09;;;;;;;;;;;;;;;25.87;45.82;98706.69;4337389;32;33955;-75
2022/08/15 05:34:48;;;;;;;;;;;;;;;26.01;46.52;98702.75;4337084;32;34823;-76
2022/08/15 05:37:18;;;;;;;;;;;;;;;25.93;46.05;98698.16;4336645;32;33790;-75
2022/08/15 05:39:50;;;;;;;;;;;;;;;25.86;45.91;98701.53;4330753;33;34927;-76
2022/08/15 05:42:25;;;;;;;;;;;;;;;25.89;45.78;98699.41;4339994;32;34329;-76
2022/08/15 05:45:03;;;;;;;;;;;;;;;26.17;45.50;98699.53;4337699;32;34484;-76
2022/08/15 05:47:37;;;;;;;;;;;;;;;26.48;44.50;98707.25;4338109;33;34054;-78
2022/08/15 05:50:24;;;;;;;;;;;;;;;26.49;44.86;98704.44;4337209;33;34223;-78
2022/08/15 05:52:56;;;;;;;;;;;;;;;26.39;45.36;98699.16;4335786;33;34687;-79
2022/08/15 05:55:34;;;;;;;;;;;;;;;26.43;46.74;98705.00;4341450;33;34001;-78
2022/08/15 05:58:06;;;;;;;;;;;;;;;26.46;46.12;98701.22;4340234;33;33159;-80
2022/08/15 06:00:56;;;;;;;;;;;;;;;26.79;44.65;98706.00;4326995;33;34194;-79
2022/08/15 06:03:26;;;;;;;;;;;;;;;27.15;43.60;98711.41;4326257;33;35147;-77
2022/08/15 06:06:11;;;;;;;;;;;;;;;27.09;43.62;98708.53;4336920;33;34526;-79
2022/08/15 06:08:55;;;;;;;;;;;;;;;27.19;44.38;98714.66;4337522;33;33205;-79
2022/08/15 06:11:31;;;;;;;;;;;;;;;27.28;44.15;98715.56;4340508;33;33718;-77
2022/08/15 06:14:02;;;;;;;;;;;;;;;27.31;43.68;98718.78;4336704;32;33618;-79
2022/08/15 06:16:32;;;;;;;;;;;;;;;27.16;43.51;98718.44;4336186;32;34961;-78
2022/08/15 06:19:17;;;;;;;;;;;;;;;27.17;43.07;98716.59;4329991;32;32721;-78
2022/08/15 06:21:53;;;;;;;;;;;;;;;27.31;42.98;98718.78;4338466;33;34863;-80
2022/08/15 06:24:23;;;;;;;;;;;;;;;27.54;42.15;98715.66;4328570;32;34564;-79
2022/08/15 06:26:56;;;;;;;;;;;;;;;27.13;43.39;98716.06;4328525;33;33821;-78
2022/08/15 06:29:40;;;;;;;;;;;;;;;27.41;43.00;98710.72;4335531;33;34033;-77
2022/08/15 06:32:11;;;;;;;;;;;;;;;27.86;41.90;98715.16;4338959;33;34312;-79
2022/08/15 06:34:59;;;;;;;;;;;;;;;27.73;42.90;98712.84;4337467;33;34076;-78
2022/08/15 06:37:32;;;;;;;;;;;;;;;27.70;43.42;98720.31;4339064;33;34738;-77
2022/08/15 06:40:07;;;;;;;;;;;;;;;28.00;42.87;98719.09;4335143;33;33700;-76
2022/08/15 06:42:36;;;;;;;;;;;;;;;28.13;43.36;98713.37;4324914;33;33532;-76
2022/08/15 06:45:07;;;;;;;;;;;;;;;28.17;43.03;98723.53;4335106;33;34550;-77
2022/08/15 06:47:35;;;;;;;;;;;;;;;28.24;42.56;98718.41;4340577;33;34962;-77
2022/08/15 06:50:07;;;;;;;;;;;;;;;28.37;42.10;98723.34;4344407;33;33118;-78
2022/08/15 06:52:47;;;;;;;;;;;;;;;28.62;42.28;98724.34;4343372;33;33790;-76
2022/08/15 06:55:23;;;;;;;;;;;;;;;28.30;41.72;98717.81;4340274;32;35765;-76
2022/08/15 06:57:54;;;;;;;;;;;;;;;28.75;40.90;98714.06;4338466;33;33776;-77
2022/08/15 07:00:32;;;;;;;;;;;;;;;28.83;41.20;98711.44;4333479;32;33264;-77
2022/08/15 07:03:16;;;;;;;;;;;;;;;29.12;41.03;98712.91;4339449;33;33668;-77
2022/08/15 07:05:47;;;;;;;;;;;;;;;29.39;40.05;98718.97;4343175;33;34761;-78
2022/08/15 07:08:26;;;;;;;;;;;;;;;29.40;40.15;98715.28;4338871;33;34767;-76
2022/08/15 07:10:58;;;;;;;;;;;;;;;29.49;39.44;98714.31;4325009;33;33059;-78
2022/08/15 07:13:29;;;;;;;;;;;;;;;29.59;39.51;98712.31;4325860;33;33785;-78
2022/08/15 07:15:59;;;;;;;;;;;;;;;29.56;39.26;98716.16;4340830;33;34593;-77
2022/08/15 07:18:35;;;;;;;;;;;;;;;29.50;39.40;98721.31;4345705;33;33980;-77
2022/08/15 07:21:06;;;;;;;;;;;;;;;29.63;39.95;98719.00;4340496;33;33244;-76
2022/08/15 07:23:59;;;;;;;;;;;;;;;29.85;39.45;98717.53;4339288;33;34418;-78
2022/08/15 07:26:28;;;;;;;;;;;;;;;29.73;39.93;98713.53;4340177;33;35305;-77
2022/08/15 07:28:59;;;;;;;;;;;;;;;29.75;39.15;98720.37;4339337;32;35463;-76
2022/08/15 07:31:29;;;;;;;;;;;;;;;29.63;39.89;98716.31;4345371;33;33391;-76
2022/08/15 07:34:22;;;;;;;;;;;;;;;29.92;39.31;98720.37;4339982;33;35529;-78
2022/08/15 07:36:55;;;;;;;;;;;;;;;29.88;39.71;98729.72;4340354;33;34809;-76
2022/08/15 07:39:31;;;;;;;;;;;;;;;29.80;40.42;98722.53;4340399;33;33676;-78
2022/08/15 07:42:10;;;;;;;;;;;;;;;29.71;40.22;98716.34;4340504;33;33446;-78
2022/08/15 07:45:00;;;;;;;;;;;;;;;29.94;39.68;98721.88;4333804;33;33968;-77
2022/08/15 07:47:34;;;;;;;;;;;;;;;29.60;39.87;98724.69;4331408;33;33970;-76
2022/08/15 07:50:32;;;;;;;;;;;;;;;29.81;39.86;98720.69;4325348;33;33898;-79
2022/08/15 07:53:06;;;;;;;;;;;;;;;29.74;40.43;98721.37;4335402;33;32828;-77
2022/08/15 07:56:04;;;;;;;;;;;;;;;29.81;39.56;98726.03;4340264;33;33669;-76
2022/08/15 07:58:55;;;;;;;;;;;;;;;29.69;39.84;98722.88;4340265;33;33859;-77
2022/08/15 08:01:27;;;;;;;;;;;;;;;29.17;38.74;98723.09;4340684;33;34333;-78
2022/08/15 08:04:05;;;;;;;;;;;;;;;29.73;39.18;98729.56;4345824;33;33214;-76
2022/08/15 08:06:36;;;;;;;;;;;;;;;30.06;38.42;98724.19;4345812;33;34735;-77
2022/08/15 08:09:24;;;;;;;;;;;;;;;29.66;38.89;98728.53;4340325;33;34684;-77
2022/08/15 08:11:54;;;;;;;;;;;;;;;29.86;38.93;98723.69;4339519;33;33533;-77
2022/08/15 08:14:31;;;;;;;;;;;;;;;30.02;38.73;98728.22;4339741;33;33173;-77
2022/08/15 08:17:11;;;;;;;;;;;;;;;30.20;38.15;98727.03;4339397;33;34055;-76
2022/08/15 08:19:50;;;;;;;;;;;;;;;29.94;36.90;98731.75;4345681;33;34009;-76
2022/08/15 08:22:23;;;;;;;;;;;;;;;30.19;37.14;98728.03;4340154;33;34973;-78
2022/08/15 08:24:54;;;;;;;;;;;;;;;30.52;37.20;98727.19;4340170;33;34622;-76
2022/08/15 08:27:27;;;;;;;;;;;;;;;30.06;36.41;98722.38;4340283;33;33956;-76
2022/08/15 08:30:03;;;;;;;;;;;;;;;30.55;36.94;98722.28;4339987;33;34311;-78
2022/08/15 08:32:53;;;;;;;;;;;;;;;30.59;35.74;98725.44;4345574;33;34376;-76
2022/08/15 08:35:31;;;;;;;;;;;;;;;30.71;37.02;98721.41;4341227;33;33208;-78
2022/08/15 08:38:02;;;;;;;;;;;;;;;30.79;35.61;98724.06;4340144;33;34771;-76
2022/08/15 08:43:42;;;;;;;;;;;;;;;30.75;35.57;98721.91;4339429;33;34280;-78
2022/08/15 08:46:15;;;;;;;;;;;;;;;30.97;35.70;98721.16;4339693;33;34093;-75
2022/08/15 08:49:01;;;;;;;;;;;;;;;31.17;34.97;98720.72;4345143;33;33522;-77
2022/08/15 08:51:34;;;;;;;;;;;;;;;31.12;34.63;98721.28;4341266;33;34561;-77
2022/08/15 08:54:06;;;;;;;;;;;;;;;31.22;35.00;98718.38;4339654;33;33771;-77
2022/08/15 08:56:38;;;;;;;;;;;;;;;31.34;35.23;98714.28;4339267;33;33189;-77
2022/08/15 08:59:11;;;;;;;;;;;;;;;31.42;33.28;98716.91;4339152;33;33771;-77
2022/08/15 09:01:43;;;;;;;;;;;;;;;31.51;33.39;98711.50;4342968;33;34859;-78
2022/08/15 09:04:12;;;;;;;;;;;;;;;31.41;34.45;98720.63;4336693;33;34406;-77
2022/08/15 09:06:47;;;;;;;;;;;;;;;31.67;33.48;98708.69;4339247;33;34081;-76
2022/08/15 09:09:23;;;;;;;;;;;;;;;31.73;32.88;98707.16;4336552;33;34091;-76
2022/08/15 09:11:57;;;;;;;;;;;;;;;31.60;32.99;98703.22;4338670;33;35080;-77
2022/08/15 09:14:26;;;;;;;;;;;;;;;31.62;32.97;98711.09;4340491;33;33775;-77
2022/08/15 09:17:04;;;;;;;;;;;;;;;31.73;32.97;98702.63;4332461;33;33310;-77
2022/08/15 09:19:55;;;;;;;;;;;;;;;31.74;32.08;98703.44;4340058;33;33122;-76
2022/08/15 09:22:28;;;;;;;;;;;;;;;31.99;32.68;98701.41;4338956;33;33682;-78
2022/08/15 09:24:56;;;;;;;;;;;;;;;32.01;32.26;98700.22;4338272;33;34153;-77
2022/08/15 09:27:38;;;;;;;;;;;;;;;32.06;30.91;98705.03;4329904;33;33122;-78
2022/08/15 09:30:26;;;;;;;;;;;;;;;32.13;29.52;98692.56;4337405;33;34281;-76
2022/08/15 09:33:30;;;;;;;;;;;;;;;31.88;31.06;98697.28;4338144;33;34043;-77
2022/08/15 09:36:13;;;;;;;;;;;;;;;32.12;30.90;98700.81;4340521;33;34533;-78
2022/08/15 09:38:58;;;;;;;;;;;;;;;31.97;31.57;98693.56;4339741;33;33213;-77
2022/08/15 09:41:34;;;;;;;;;;;;;;;32.14;29.70;98691.56;4334949;32;33482;-77
2022/08/15 09:44:06;;;;;;;;;;;;;;;32.26;31.00;98689.25;4334263;33;35213;-76
2022/08/15 09:47:02;;;;;;;;;;;;;;;32.22;29.22;98686.09;4339128;32;33964;-76
2022/08/15 09:50:01;;;;;;;;;;;;;;;32.43;28.69;98693.41;4338577;32;33079;-77
2022/08/15 09:52:53;;;;;;;;;;;;;;;32.57;28.62;98697.13;4337393;32;34686;-77
2022/08/15 09:55:24;;;;;;;;;;;;;;;32.24;28.30;98688.59;4338509;33;33948;-76
2022/08/15 09:57:59;;;;;;;;;;;;;;;32.39;29.11;98685.94;4330018;33;33654;-76
2022/08/15 10:00:29;;;;;;;;;;;;;;;32.76;29.19;98689.53;4335136;33;33095;-75
2022/08/15 10:03:00;;;;;;;;;;;;;;;32.69;27.85;98690.31;4338927;33;33591;-77
2022/08/15 10:05:42;;;;;;;;;;;;;;;32.79;28.64;98683.78;4336698;33;33999;-77
2022/08/15 10:08:16;;;;;;;;;;;;;;;32.67;28.95;98680.78;4332952;33;35342;-78
2022/08/15 10:11:10;;;;;;;;;;;;;;;32.53;29.18;98677.06;4338534;33;32945;-76
2022/08/15 10:13:45;;;;;;;;;;;;;;;32.48;29.08;98666.84;4332243;33;34276;-78
2022/08/15 10:16:33;;;;;;;;;;;;;;;31.93;29.45;98665.41;4332831;33;34852;-77
2022/08/15 10:19:08;;;;;;;;;;;;;;;32.57;30.01;98669.47;4341360;33;34152;-78
2022/08/15 10:21:39;;;;;;;;;;;;;;;32.74;26.95;98657.47;4345113;33;33337;-77
2022/08/15 10:24:23;;;;;;;;;;;;;;;32.80;27.22;98663.97;4340397;33;34650;-77
2022/08/15 10:27:17;;;;;;;;;;;;;;;33.10;26.83;98656.69;4339766;33;35007;-76
2022/08/15 10:29:48;;;;;;;;;;;;;;;33.26;26.61;98648.38;4340960;33;33927;-76
2022/08/15 10:32:21;;;;;;;;;;;;;;;33.40;26.50;98646.66;4339986;33;33027;-76
2022/08/15 10:35:15;;;;;;;;;;;;;;;33.47;26.62;98647.56;4343349;33;34150;-77
2022/08/15 10:37:51;;;;;;;;;;;;;;;33.26;24.68;98651.06;4345626;33;34128;-79
2022/08/15 10:40:47;;;;;;;;;;;;;;;33.57;24.88;98645.41;4333781;33;34888;-77
2022/08/15 10:43:28;;;;;;;;;;;;;;;33.62;25.20;98646.69;4333936;32;33280;-78
2022/08/15 10:46:19;;;;;;;;;;;;;;;33.50;25.79;98649.84;4338170;33;34254;-77
2022/08/15 10:48:52;;;;;;;;;;;;;;;33.61;26.02;98642.31;4335949;33;34808;-78
2022/08/15 10:51:25;;;;;;;;;;;;;;;33.30;25.81;98643.47;4329528;33;32219;-77
2022/08/15 10:53:56;;;;;;;;;;;;;;;33.47;24.33;98633.28;4334268;33;32682;-76
2022/08/15 10:56:26;;;;;;;;;;;;;;;33.43;23.61;98630.16;4332987;32;34289;-76
2022/08/15 10:59:18;;;;;;;;;;;;;;;33.35;23.95;98624.91;4329902;32;34033;-77
2022/08/15 11:01:48;;;;;;;;;;;;;;;33.51;24.51;98627.31;4330683;32;34397;-76
2022/08/15 11:04:23;;;;;;;;;;;;;;;33.53;26.72;98635.19;4338652;33;33193;-76
2022/08/15 11:07:22;;;;;;;;;;;;;;;33.68;26.16;98629.75;4343833;33;34510;-77
2022/08/15 11:09:55;;;;;;;;;;;;;;;33.95;26.00;98638.84;4344164;33;34729;-78
2022/08/15 11:12:25;;;;;;;;;;;;;;;33.15;26.68;98622.88;4340022;33;34226;-78
2022/08/15 11:14:56;;;;;;;;;;;;;;;33.94;25.50;98616.50;4336169;33;33247;-77
2022/08/15 11:17:26;;;;;;;;;;;;;;;34.19;25.88;98618.75;4339915;33;33725;-77
2022/08/15 11:20:15;;;;;;;;;;;;;;;34.44;25.38;98611.00;4339010;33;34474;-78
2022/08/15 11:22:49;;;;;;;;;;;;;;;34.61;26.07;98606.97;4343695;33;33990;-77
2022/08/15 11:25:23;;;;;;;;;;;;;;;34.88;24.95;98611.63;4331397;33;33667;-77
2022/08/15 11:27:59;;;;;;;;;;;;;;;34.91;24.20;98605.81;4325565;33;34218;-79
2022/08/15 11:30:29;;;;;;;;;;;;;;;34.82;24.55;98613.25;4336596;33;34992;-78
2022/08/15 11:33:13;;;;;;;;;;;;;;;34.95;23.87;98617.84;4346140;33;33724;-79
2022/08/15 11:35:42;;;;;;;;;;;;;;;35.18;24.90;98604.88;4345726;32;35537;-79
2022/08/15 11:38:18;;;;;;;;;;;;;;;35.38;24.32;98607.56;4340246;33;33827;-78
2022/08/15 11:40:52;;;;;;;;;;;;;;;35.38;23.64;98607.56;4342852;33;33693;-78
2022/08/15 11:43:24;;;;;;;;;;;;;;;35.73;22.84;98601.16;4340306;33;34632;-79
2022/08/15 11:45:56;;;;;;;;;;;;;;;35.66;23.57;98606.56;4343891;33;32945;-78
2022/08/15 11:48:26;;;;;;;;;;;;;;;35.32;22.19;98604.88;4342692;33;34724;-79
2022/08/15 11:51:06;;;;;;;;;;;;;;;35.40;22.29;98610.91;4335547;33;33784;-77
2022/08/15 11:53:39;;;;;;;;;;;;;;;35.36;22.38;98593.47;4337317;33;34753;-79
2022/08/15 11:56:08;;;;;;;;;;;;;;;35.37;21.38;98603.19;4338417;33;33285;-78
2022/08/15 11:58:53;;;;;;;;;;;;;;;35.05;22.16;98600.25;4335498;33;33836;-76
2022/08/15 12:01:33;;;;;;;;;;;;;;;35.23;22.79;98598.84;4336238;32;33746;-79
2022/08/15 12:04:08;;;;;;;;;;;;;;;35.24;22.97;98592.44;4329344;33;33084;-78
2022/08/15 12:06:56;;;;;;;;;;;;;;;35.18;23.09;98594.09;4326492;33;32869;-77
2022/08/15 12:09:27;;;;;;;;;;;;;;;35.22;22.99;98586.41;4332909;33;32956;-77
2022/08/15 12:12:18;;;;;;;;;;;;;;;35.32;22.55;98586.00;4332059;33;34003;-78
2022/08/15 12:14:47;;;;;;;;;;;;;;;35.23;22.84;98583.50;4335568;32;34486;-79
2022/08/15 12:17:25;;;;;;;;;;;;;;;35.20;22.79;98578.50;4335712;33;31443;-78
2022/08/15 12:20:15;;;;;;;;;;;;;;;34.81;22.55;98576.56;4332151;33;34659;-77
2022/08/15 12:22:56;;;;;;;;;;;;;;;35.35;23.24;98577.47;4330717;33;33981;-77
2022/08/15 12:25:32;;;;;;;;;;;;;;;35.72;21.60;98572.53;4325262;33;34407;-77
2022/08/15 12:28:20;;;;;;;;;;;;;;;35.72;20.94;98557.16;4326101;33;32949;-78
2022/08/15 12:31:07;;;;;;;;;;;;;;;35.89;20.91;98562.94;4326147;33;33733;-79
2022/08/15 12:33:45;;;;;;;;;;;;;;;36.02;21.12;98559.38;4334694;33;34554;-78
2022/08/15 12:36:20;;;;;;;;;;;;;;;36.03;21.92;98563.75;4326409;33;32711;-77
2022/08/15 12:39:08;;;;;;;;;;;;;;;35.94;21.96;98557.75;4327922;32;33152;-78
2022/08/15 12:41:39;;;;;;;;;;;;;;;36.32;22.41;98565.12;4328909;33;33775;-78
2022/08/15 12:44:28;;;;;;;;;;;;;;;36.38;22.40;98552.63;4329826;33;34089;-77
2022/08/15 12:46:57;;;;;;;;;;;;;;;36.25;22.59;98554.34;4331610;33;34505;-77
2022/08/15 12:49:27;;;;;;;;;;;;;;;36.25;22.18;98558.94;4330200;33;33202;-77
2022/08/15 12:52:00;;;;;;;;;;;;;;;36.59;22.16;98546.94;4327045;33;33732;-77
2022/08/15 12:54:28;;;;;;;;;;;;;;;36.48;21.30;98551.13;4329127;33;34210;-79
2022/08/15 12:57:05;;;;;;;;;;;;;;;37.17;20.91;98542.44;4326951;32;34906;-77
2022/08/15 12:59:44;;;;;;;;;;;;;;;37.25;20.27;98542.16;4332187;33;33757;-77
2022/08/15 13:02:13;;;;;;;;;;;;;;;37.52;19.04;98538.19;4333851;33;34531;-79
2022/08/15 13:05:04;;;;;;;;;;;;;;;37.81;19.08;98543.94;4332041;33;34990;-77
2022/08/15 13:07:40;;;;;;;;;;;;;;;38.07;18.47;98547.44;4337690;33;33662;-77
2022/08/15 13:10:28;;;;;;;;;;;;;;;38.26;18.43;98548.25;4336541;32;33010;-77
2022/08/15 13:13:17;;;;;;;;;;;;;;;38.39;17.43;98553.50;4330170;32;34831;-77
2022/08/15 13:15:48;;;;;;;;;;;;;;;38.68;17.21;98556.47;4337945;32;34433;-76
2022/08/15 13:18:19;;;;;;;;;;;;;;;38.51;17.74;98550.88;4336236;32;34909;-76
2022/08/15 13:23:41;;;;;;;;;;;;;;;38.80;17.64;98538.37;4331636;32;33942;-77
2022/08/15 13:26:30;;;;;;;;;;;;;;;38.78;17.50;98526.94;4332589;32;34522;-77
2022/08/15 13:29:07;;;;;;;;;;;;;;;38.44;17.64;98529.25;4332044;32;33541;-78
2022/08/15 13:31:38;;;;;;;;;;;;;;;38.11;17.39;98527.81;4339040;32;32470;-78
2022/08/15 13:34:07;;;;;;;;;;;;;;;37.95;17.62;98526.50;4336407;33;34723;-77
2022/08/15 13:36:37;;;;;;;;;;;;;;;37.30;18.96;98523.37;4335299;32;34594;-79
2022/08/15 13:39:22;;;;;;;;;;;;;;;37.31;20.06;98525.88;4335317;33;33998;-78
2022/08/15 13:41:56;;;;;;;;;;;;;;;37.05;19.62;98513.41;4336647;33;33371;-77